createdAt,value
2023-04-12T00:01:43.050Z,2.67
2023-04-12T00:04:10.217Z,2.70
2023-04-12T00:06:37.097Z,2.78
2023-04-12T00:09:04.314Z,2.67
2023-04-12T00:11:31.670Z,2.58
2023-04-12T00:13:58.581Z,2.08
2023-04-12T00:16:25.473Z,2.60
2023-04-12T00:18:52.171Z,2.45
2023-04-12T00:21:19.567Z,2.00
2023-04-12T00:23:47.418Z,2.45
2023-04-12T00:26:15.243Z,2.20
2023-04-12T00:28:43.307Z,2.60
2023-04-12T00:31:12.192Z,3.00
2023-04-12T00:33:38.698Z,3.15
2023-04-12T00:36:05.967Z,3.20
2023-04-12T00:38:34.376Z,3.00
2023-04-12T00:41:03.381Z,2.47
2023-04-12T00:43:30.068Z,2.90
2023-04-12T00:45:58.026Z,3.03
2023-04-12T00:48:27.463Z,2.97
2023-04-12T00:50:57.840Z,2.80
2023-04-12T00:53:24.655Z,3.20
2023-04-12T00:55:52.518Z,2.90
2023-04-12T00:58:24.173Z,2.57
2023-04-12T01:00:54.716Z,3.08
2023-04-12T01:03:24.404Z,2.80
2023-04-12T01:05:54.928Z,3.45
2023-04-12T01:08:31.491Z,3.40
2023-04-12T01:11:04.233Z,3.00
2023-04-12T01:13:42.115Z,3.95
2023-04-12T01:16:26.618Z,3.40
2023-04-12T01:18:58.106Z,3.45
2023-04-12T01:21:31.993Z,3.15
2023-04-12T01:23:58.657Z,3.30
2023-04-12T01:26:42.280Z,3.40
2023-04-12T01:29:11.204Z,3.72
2023-04-12T01:31:53.740Z,3.50
2023-04-12T01:34:23.281Z,3.40
2023-04-12T01:36:50.921Z,3.47
2023-04-12T01:39:17.646Z,4.20
2023-04-12T01:41:48.759Z,3.25
2023-04-12T01:44:16.607Z,3.67
2023-04-12T01:46:44.547Z,4.00
2023-04-12T01:49:12.956Z,4.03
2023-04-12T01:51:49.451Z,4.13
2023-04-12T01:54:26.221Z,3.97
2023-04-12T01:56:58.803Z,5.38
2023-04-12T01:59:27.834Z,4.30
2023-04-12T02:01:54.616Z,4.13
2023-04-12T02:04:21.940Z,3.92
2023-04-12T02:06:48.790Z,3.97
2023-04-12T02:09:15.955Z,3.70
2023-04-12T02:11:47.670Z,3.83
2023-04-12T02:14:14.606Z,3.75
2023-04-12T02:16:42.280Z,3.92
2023-04-12T02:19:11.191Z,3.70
2023-04-12T02:21:42.339Z,4.00
2023-04-12T02:24:09.866Z,3.30
2023-04-12T02:26:37.243Z,3.92
2023-04-12T02:29:09.075Z,3.45
2023-04-12T02:34:03.527Z,3.25
2023-04-12T02:36:30.804Z,3.10
2023-04-12T02:38:58.415Z,3.20
2023-04-12T02:41:26.756Z,3.30
2023-04-12T02:43:53.613Z,3.00
2023-04-12T02:46:24.723Z,2.97
2023-04-12T02:48:56.595Z,2.80
2023-04-12T02:51:31.541Z,2.95
2023-04-12T02:53:58.440Z,3.53
2023-04-12T02:56:29.871Z,2.88
2023-04-12T02:59:06.633Z,3.17
2023-04-12T03:01:56.431Z,3.13
2023-04-12T03:06:59.722Z,2.78
2023-04-12T03:09:35.276Z,4.00
2023-04-12T03:12:03.486Z,3.50
2023-04-12T03:14:34.541Z,3.28
2023-04-12T03:17:02.267Z,3.13
2023-04-12T03:19:30.445Z,2.58
2023-04-12T03:21:57.103Z,3.60
2023-04-12T03:24:24.304Z,3.10
2023-04-12T03:26:52.253Z,3.28
2023-04-12T03:29:23.230Z,2.70
2023-04-12T03:31:52.258Z,2.90
2023-04-12T03:34:19.368Z,3.30
2023-04-12T03:36:50.611Z,2.60
2023-04-12T03:39:41.953Z,1.95
2023-04-12T03:42:21.517Z,2.45
2023-04-12T03:44:57.128Z,2.83
2023-04-12T03:47:23.914Z,2.85
2023-04-12T03:50:06.099Z,2.83
2023-04-12T03:52:38.364Z,3.90
2023-04-12T03:55:12.199Z,2.83
2023-04-12T03:57:39.306Z,3.55
2023-04-12T04:00:08.792Z,3.30
2023-04-12T04:02:54.073Z,3.45
2023-04-12T04:05:21.822Z,3.83
2023-04-12T04:07:49.038Z,4.07
2023-04-12T04:10:16.157Z,3.83
2023-04-12T04:12:44.718Z,3.97
2023-04-12T04:15:12.382Z,4.15
2023-04-12T04:17:40.002Z,3.60
2023-04-12T04:20:08.937Z,3.90
2023-04-12T04:22:38.291Z,4.65
2023-04-12T04:25:08.284Z,3.80
2023-04-12T04:27:38.640Z,4.55
2023-04-12T04:30:07.917Z,3.70
2023-04-12T04:32:37.622Z,4.30
2023-04-12T04:35:05.194Z,4.10
2023-04-12T04:37:43.466Z,4.57
2023-04-12T04:40:13.970Z,4.57
2023-04-12T04:42:43.067Z,4.60
2023-04-12T04:45:13.767Z,4.00
2023-04-12T04:47:43.399Z,4.25
2023-04-12T04:50:10.369Z,5.22
2023-04-12T04:52:39.423Z,5.10
2023-04-12T04:55:11.376Z,5.28
2023-04-12T04:57:40.736Z,5.20
2023-04-12T05:00:11.578Z,4.97
2023-04-12T05:02:42.813Z,5.55
2023-04-12T05:05:15.986Z,5.32
2023-04-12T05:07:44.561Z,5.60
2023-04-12T05:10:11.505Z,6.43
2023-04-12T05:12:40.806Z,6.53
2023-04-12T05:15:12.209Z,6.97
2023-04-12T05:17:40.319Z,6.10
2023-04-12T05:20:07.745Z,6.55
2023-04-12T05:22:34.887Z,7.13
2023-04-12T05:25:02.672Z,6.63
2023-04-12T05:27:31.883Z,7.25
2023-04-12T05:29:59.805Z,7.15
2023-04-12T05:32:26.591Z,6.40
2023-04-12T05:34:53.709Z,7.57
2023-04-12T05:37:22.656Z,7.70
2023-04-12T05:39:49.392Z,8.32
2023-04-12T05:42:18.500Z,8.30
2023-04-12T05:44:46.534Z,7.85
2023-04-12T05:47:14.844Z,8.32
2023-04-12T05:49:42.057Z,9.25
2023-04-12T05:52:10.135Z,8.93
2023-04-12T05:54:36.900Z,8.50
2023-04-12T05:57:04.420Z,9.10
2023-04-12T05:59:31.173Z,8.27
2023-04-12T06:01:57.869Z,9.85
2023-04-12T06:04:48.820Z,9.00
2023-04-12T06:07:18.861Z,9.60
2023-04-12T06:09:45.432Z,9.90
2023-04-12T06:12:11.990Z,9.65
2023-04-12T06:14:39.725Z,11.02
2023-04-12T06:17:07.452Z,9.93
2023-04-12T06:19:33.999Z,10.75
2023-04-12T06:22:00.581Z,10.25
2023-04-12T06:24:27.154Z,9.93
2023-04-12T06:26:54.201Z,10.90
2023-04-12T06:29:22.278Z,10.73
2023-04-12T06:31:49.015Z,10.57
2023-04-12T06:34:16.036Z,11.02
2023-04-12T06:36:46.243Z,10.65
2023-04-12T06:39:12.925Z,10.43
2023-04-12T06:41:39.673Z,10.77
2023-04-12T06:44:06.313Z,10.55
2023-04-12T06:46:32.927Z,10.45
2023-04-12T06:48:59.763Z,10.43
2023-04-12T06:51:26.506Z,10.48
2023-04-12T06:53:53.076Z,10.27
2023-04-12T06:56:19.705Z,10.40
2023-04-12T06:58:46.781Z,11.07
2023-04-12T07:01:14.595Z,10.85
2023-04-12T07:03:41.547Z,10.50
2023-04-12T07:06:21.939Z,10.50
2023-04-12T07:08:51.897Z,10.48
2023-04-12T07:11:21.882Z,9.60
2023-04-12T07:13:49.493Z,9.53
2023-04-12T07:16:17.161Z,9.88
2023-04-12T07:18:44.490Z,9.52
2023-04-12T07:21:14.297Z,9.55
2023-04-12T07:23:41.269Z,9.63
2023-04-12T07:26:07.932Z,10.65
2023-04-12T07:28:35.904Z,9.30
2023-04-12T07:31:06.103Z,9.27
2023-04-12T07:33:34.677Z,9.90
2023-04-12T07:36:01.988Z,9.80
2023-04-12T07:38:28.646Z,8.85
2023-04-12T07:40:56.547Z,8.57
2023-04-12T07:43:23.157Z,10.07
2023-04-12T07:45:49.900Z,9.75
2023-04-12T07:48:16.638Z,9.48
2023-04-12T07:50:43.774Z,8.68
2023-04-12T07:53:28.956Z,8.48
2023-04-12T07:55:56.234Z,8.95
2023-04-12T07:58:23.797Z,8.48
2023-04-12T08:00:50.973Z,9.82
2023-04-12T08:03:18.873Z,9.85
2023-04-12T08:05:47.272Z,8.90
2023-04-12T08:08:14.189Z,9.57
2023-04-12T08:10:40.794Z,8.65
2023-04-12T08:13:08.045Z,8.55
2023-04-12T08:15:34.783Z,9.40
2023-04-12T08:18:02.165Z,8.48
2023-04-12T08:20:29.066Z,7.88
2023-04-12T08:22:55.746Z,9.02
2023-04-12T08:25:22.424Z,9.40
2023-04-12T08:27:50.248Z,8.77
2023-04-12T08:30:17.273Z,8.57
2023-04-12T08:32:44.009Z,8.68
2023-04-12T08:35:11.116Z,8.48
2023-04-12T08:37:37.712Z,8.52
2023-04-12T08:40:08.279Z,9.00
2023-04-12T08:42:37.013Z,8.88
2023-04-12T08:45:13.008Z,8.88
2023-04-12T08:47:41.782Z,8.80
2023-04-12T08:50:10.735Z,8.48
2023-04-12T08:52:38.078Z,8.32
2023-04-12T08:55:08.882Z,8.60
2023-04-12T08:57:36.323Z,9.35
2023-04-12T09:00:03.951Z,8.70
2023-04-12T09:02:31.376Z,9.55
2023-04-12T09:04:58.476Z,9.20
2023-04-12T09:07:30.143Z,9.77
2023-04-12T09:09:58.820Z,10.57
2023-04-12T09:12:25.720Z,10.27
2023-04-12T09:15:08.516Z,10.15
2023-04-12T09:17:36.896Z,10.23
2023-04-12T09:20:04.520Z,10.65
2023-04-12T09:22:38.802Z,10.48
2023-04-12T09:25:05.852Z,11.40
2023-04-12T09:27:49.229Z,11.85
2023-04-12T09:30:17.057Z,10.85
2023-04-12T09:32:44.118Z,10.38
2023-04-12T09:35:11.890Z,11.25
2023-04-12T09:37:39.049Z,10.32
2023-04-12T09:40:07.740Z,9.65
2023-04-12T09:42:35.510Z,8.98
2023-04-12T09:45:25.085Z,9.02
2023-04-12T09:47:52.477Z,8.32
2023-04-12T09:50:23.655Z,8.85
2023-04-12T09:52:50.820Z,8.45
2023-04-12T09:55:17.600Z,7.68
2023-04-12T09:57:45.244Z,7.25
2023-04-12T10:00:20.258Z,5.93
2023-04-12T10:02:52.229Z,5.68
2023-04-12T10:05:21.828Z,5.40
2023-04-12T10:07:49.208Z,3.30
2023-04-12T10:10:18.164Z,2.95
2023-04-12T10:12:46.715Z,3.00
2023-04-12T10:15:15.472Z,2.75
2023-04-12T10:17:47.591Z,1.83
2023-04-12T10:20:16.753Z,1.98
2023-04-12T10:22:45.898Z,2.35
2023-04-12T10:25:14.040Z,2.90
2023-04-12T10:27:42.384Z,2.70
2023-04-12T10:30:29.034Z,3.45
2023-04-12T10:33:05.210Z,2.67
2023-04-12T10:36:01.456Z,2.33
2023-04-12T10:38:34.560Z,3.17
2023-04-12T10:41:14.428Z,2.17
2023-04-12T10:43:48.428Z,2.00
2023-04-12T10:46:40.196Z,2.53
2023-04-12T10:49:11.049Z,2.72
2023-04-12T10:51:37.664Z,2.60
2023-04-12T10:54:31.444Z,2.95
2023-04-12T10:56:58.093Z,3.40
2023-04-12T10:59:56.560Z,3.03
2023-04-12T11:02:23.432Z,3.10
2023-04-12T11:05:11.699Z,3.70
2023-04-12T11:08:12.119Z,3.30
2023-04-12T11:11:00.064Z,2.90
2023-04-12T11:13:36.647Z,3.67
2023-04-12T11:16:04.136Z,2.83
2023-04-12T11:18:33.570Z,3.22
2023-04-12T11:21:02.589Z,2.85
2023-04-12T11:23:29.317Z,3.08
2023-04-12T11:25:55.895Z,2.90
2023-04-12T11:28:28.633Z,2.95
2023-04-12T11:30:58.710Z,3.30
2023-04-12T11:33:39.053Z,2.30
2023-04-12T11:36:13.064Z,3.05
2023-04-12T11:38:45.959Z,3.20
2023-04-12T11:41:14.601Z,3.03
2023-04-12T11:43:41.403Z,2.70
2023-04-12T11:46:08.577Z,3.95
2023-04-12T11:48:38.409Z,2.53
2023-04-12T11:51:29.850Z,2.50
2023-04-12T11:53:59.393Z,2.72
2023-04-12T11:56:27.281Z,2.50
2023-04-12T11:58:53.892Z,2.33
2023-04-12T12:01:22.981Z,2.15
2023-04-12T12:03:50.444Z,2.33
2023-04-12T12:06:18.082Z,2.38
2023-04-12T12:08:44.735Z,1.85
2023-04-12T12:11:11.533Z,2.50
2023-04-12T12:13:52.599Z,2.90
2023-04-12T12:16:30.270Z,2.00
2023-04-12T12:18:57.354Z,2.30
2023-04-12T12:21:24.047Z,2.85
2023-04-12T12:23:50.823Z,2.38
2023-04-12T12:26:36.026Z,2.47
2023-04-12T12:29:05.921Z,2.55
2023-04-12T12:31:33.534Z,2.55
2023-04-12T12:34:03.789Z,2.42
2023-04-12T12:36:34.120Z,2.83
2023-04-12T12:39:10.785Z,3.20
2023-04-12T12:41:38.932Z,3.00
2023-04-12T12:44:05.610Z,3.17
2023-04-12T12:46:50.582Z,2.90
2023-04-12T12:49:19.104Z,3.10
2023-04-12T12:51:46.979Z,3.58
2023-04-12T12:54:14.317Z,4.15
2023-04-12T12:56:46.405Z,3.90
2023-04-12T12:59:13.002Z,4.93
2023-04-12T13:01:39.893Z,3.80
2023-04-12T13:04:06.895Z,3.88
2023-04-12T13:06:33.574Z,3.17
2023-04-12T13:09:00.518Z,3.10
2023-04-12T13:11:27.362Z,3.28
2023-04-12T13:13:53.927Z,3.42
2023-04-12T13:16:20.540Z,3.10
2023-04-12T13:18:47.117Z,3.00
2023-04-12T13:21:13.603Z,3.28
2023-04-12T13:23:40.237Z,2.88
2023-04-12T13:26:07.010Z,2.97
2023-04-12T13:28:33.557Z,2.30
2023-04-12T13:31:00.218Z,2.58
2023-04-12T13:33:27.040Z,2.55
2023-04-12T13:35:53.742Z,2.03
2023-04-12T13:38:20.800Z,1.90
2023-04-12T13:40:47.451Z,2.00
2023-04-12T13:43:14.021Z,1.88
2023-04-12T13:45:40.646Z,1.80
2023-04-12T13:48:07.303Z,1.90
2023-04-12T13:50:33.838Z,3.28
2023-04-12T13:53:00.383Z,2.55
2023-04-12T13:55:26.894Z,3.03
2023-04-12T13:57:53.446Z,2.38
2023-04-12T14:00:20.838Z,2.28
2023-04-12T14:02:47.437Z,2.83
2023-04-12T14:05:14.188Z,2.60
2023-04-12T14:07:40.886Z,2.63
2023-04-12T14:10:08.237Z,2.13
2023-04-12T14:12:34.899Z,2.17
2023-04-12T14:15:01.877Z,2.45
2023-04-12T14:17:32.478Z,2.60
2023-04-12T14:20:00.076Z,2.50
2023-04-12T14:22:26.809Z,3.00
2023-04-12T14:24:53.576Z,2.78
2023-04-12T14:27:21.081Z,2.80
2023-04-12T14:29:57.324Z,2.50
2023-04-12T14:32:24.859Z,2.10
2023-04-12T14:34:55.467Z,2.40
2023-04-12T14:37:22.564Z,2.45
2023-04-12T14:39:50.426Z,3.00
2023-04-12T14:42:17.053Z,2.70
2023-04-12T14:44:43.570Z,4.20
2023-04-12T14:47:10.158Z,3.00
2023-04-12T14:49:37.089Z,2.75
2023-04-12T14:52:04.368Z,3.03
2023-04-12T14:54:31.000Z,2.97
2023-04-12T14:56:57.617Z,2.47
2023-04-12T14:59:24.888Z,1.95
2023-04-12T15:01:52.407Z,1.58
2023-04-12T15:04:20.130Z,1.40
2023-04-12T15:06:47.107Z,0.90
2023-04-12T15:09:14.268Z,1.10
2023-04-12T15:11:46.999Z,1.25
2023-04-12T15:14:20.498Z,1.48
2023-04-12T15:16:49.137Z,1.20
2023-04-12T15:19:21.067Z,1.20
2023-04-12T15:21:55.560Z,1.45
2023-04-12T15:24:22.750Z,1.15
2023-04-12T15:26:50.773Z,1.20
2023-04-12T15:29:18.747Z,1.33
2023-04-12T15:31:45.596Z,1.30
2023-04-12T15:34:13.526Z,1.67
2023-04-12T15:36:42.847Z,1.60
2023-04-12T15:39:10.515Z,1.02
2023-04-12T15:41:38.629Z,5.25
2023-04-12T15:44:06.073Z,2.10
2023-04-12T15:46:33.113Z,2.53
2023-04-12T15:49:00.059Z,3.30
2023-04-12T15:51:27.639Z,2.78
2023-04-12T15:53:55.650Z,2.13
2023-04-12T15:56:25.445Z,1.70
2023-04-12T15:58:53.313Z,2.78
2023-04-12T16:01:20.052Z,3.75
2023-04-12T16:03:50.837Z,2.50
2023-04-12T16:06:21.741Z,1.98
2023-04-12T16:08:48.831Z,1.67
2023-04-12T16:11:17.085Z,2.33
2023-04-12T16:13:45.467Z,2.03
2023-04-12T16:16:13.146Z,1.70
2023-04-12T16:18:41.363Z,2.00
2023-04-12T16:21:08.951Z,1.90
2023-04-12T16:23:39.014Z,1.90
2023-04-12T16:26:05.930Z,1.52
2023-04-12T16:28:33.127Z,1.65
2023-04-12T16:30:59.849Z,1.50
2023-04-12T16:33:27.210Z,2.20
2023-04-12T16:35:54.103Z,1.90
2023-04-12T16:38:20.681Z,1.85
2023-04-12T16:40:47.884Z,1.92
2023-04-12T16:43:14.733Z,1.70
2023-04-12T16:45:45.465Z,1.30
2023-04-12T16:48:14.416Z,1.27
2023-04-12T16:50:44.905Z,1.20
2023-04-12T16:53:12.074Z,1.50
2023-04-12T16:55:47.957Z,1.85
2023-04-12T16:58:15.373Z,1.40
2023-04-12T17:00:43.223Z,1.50
2023-04-12T17:03:11.524Z,1.65
2023-04-12T17:05:39.868Z,1.73
2023-04-12T17:08:09.297Z,1.40
2023-04-12T17:10:36.942Z,1.30
2023-04-12T17:13:04.321Z,1.67
2023-04-12T17:15:31.384Z,1.60
2023-04-12T17:18:05.644Z,1.90
2023-04-12T17:20:32.816Z,1.80
2023-04-12T17:22:59.764Z,1.92
2023-04-12T17:25:29.190Z,1.65
2023-04-12T17:27:56.137Z,1.70
2023-04-12T17:30:23.838Z,1.77
2023-04-12T17:32:51.850Z,1.60
2023-04-12T17:35:19.544Z,1.80
2023-04-12T17:37:46.854Z,2.03
2023-04-12T17:40:14.002Z,1.92
2023-04-12T17:42:41.814Z,2.20
2023-04-12T17:45:11.110Z,1.83
2023-04-12T17:47:38.171Z,1.70
2023-04-12T17:50:05.304Z,1.90
2023-04-12T17:52:32.052Z,1.60
2023-04-12T17:54:59.227Z,1.70
2023-04-12T17:57:27.568Z,1.52
2023-04-12T17:59:54.130Z,1.80
2023-04-12T18:02:21.023Z,1.70
2023-04-12T18:04:48.365Z,1.70
2023-04-12T18:07:18.096Z,1.70
2023-04-12T18:09:48.182Z,2.00
2023-04-12T18:12:14.977Z,1.75
2023-04-12T18:14:41.813Z,2.00
2023-04-12T18:17:08.560Z,2.10
2023-04-12T18:19:36.248Z,2.20
2023-04-12T18:22:03.291Z,2.00
2023-04-12T18:24:30.472Z,2.50
2023-04-12T18:26:59.229Z,2.22
2023-04-12T18:29:26.315Z,2.22
2023-04-12T18:31:53.191Z,2.40
2023-04-12T18:34:20.417Z,2.65
2023-04-12T18:36:47.591Z,2.30
2023-04-12T18:39:15.863Z,3.05
2023-04-12T18:41:43.010Z,3.20
2023-04-12T18:44:09.840Z,2.90
2023-04-12T18:46:36.660Z,2.80
2023-04-12T18:49:04.585Z,2.65
2023-04-12T18:51:32.778Z,2.58
2023-04-12T18:54:00.689Z,2.20
2023-04-12T18:56:27.817Z,2.67
2023-04-12T18:58:56.308Z,2.70
2023-04-12T19:01:24.277Z,3.20
2023-04-12T19:03:51.366Z,3.47
2023-04-12T19:06:18.456Z,3.03
2023-04-12T19:08:45.615Z,3.10
2023-04-12T19:11:12.468Z,3.03
2023-04-12T19:13:39.307Z,3.30
2023-04-12T19:16:09.494Z,3.25
2023-04-12T19:18:36.484Z,3.22
2023-04-12T19:21:04.154Z,2.40
2023-04-12T19:23:31.199Z,1.90
2023-04-12T19:25:59.958Z,2.03
2023-04-12T19:28:27.335Z,1.60
2023-04-12T19:30:54.673Z,2.35
2023-04-12T19:33:21.346Z,1.20
2023-04-12T19:35:48.101Z,1.35
2023-04-12T19:38:15.715Z,1.30
2023-04-12T19:40:43.057Z,1.77
2023-04-12T19:43:09.896Z,1.20
2023-04-12T19:45:36.645Z,1.40
2023-04-12T19:48:03.532Z,1.30
2023-04-12T19:50:31.179Z,2.08
2023-04-12T19:53:21.029Z,1.30
2023-04-12T19:55:49.216Z,1.40
2023-04-12T19:58:15.858Z,1.23
2023-04-12T20:00:42.603Z,1.58
2023-04-12T20:03:09.760Z,1.13
2023-04-12T20:05:37.513Z,1.30
2023-04-12T20:08:04.449Z,1.50
2023-04-12T20:10:31.227Z,1.50
2023-04-12T20:12:58.103Z,1.50
2023-04-12T20:15:24.918Z,1.83
2023-04-12T20:17:54.118Z,1.60
2023-04-12T20:20:21.083Z,1.50
2023-04-12T20:22:51.832Z,1.63
2023-04-12T20:25:20.413Z,1.95
2023-04-12T20:27:52.573Z,1.48
2023-04-12T20:30:36.602Z,1.88
2023-04-12T20:33:04.290Z,1.77
2023-04-12T20:35:31.343Z,2.17
2023-04-12T20:37:58.436Z,1.60
2023-04-12T20:40:27.896Z,2.00
2023-04-12T20:42:58.739Z,1.98
2023-04-12T20:45:27.984Z,2.13
2023-04-12T20:47:54.588Z,2.05
2023-04-12T20:50:24.756Z,2.35
2023-04-12T20:52:52.195Z,2.93
2023-04-12T20:55:19.477Z,2.42
2023-04-12T20:57:46.086Z,3.03
2023-04-12T21:00:19.269Z,2.70
2023-04-12T21:02:46.217Z,2.80
2023-04-12T21:05:14.825Z,2.35
2023-04-12T21:07:41.499Z,3.05
2023-04-12T21:10:12.558Z,2.47
2023-04-12T21:12:42.516Z,2.80
2023-04-12T21:15:11.645Z,3.20
2023-04-12T21:17:38.829Z,2.92
2023-04-12T21:20:13.075Z,3.38
2023-04-12T21:22:43.910Z,3.78
2023-04-12T21:25:13.726Z,3.80
2023-04-12T21:27:42.427Z,4.18
2023-04-12T21:30:14.063Z,4.72
2023-04-12T21:32:42.509Z,4.80
2023-04-12T21:35:09.868Z,4.05
2023-04-12T21:37:38.245Z,4.25
2023-04-12T21:40:09.639Z,5.10
2023-04-12T21:42:37.096Z,4.93
2023-04-12T21:45:04.423Z,4.47
2023-04-12T21:47:32.081Z,5.43
2023-04-12T21:49:58.956Z,4.82
2023-04-12T21:52:26.592Z,5.07
2023-04-12T21:54:54.330Z,4.90
2023-04-12T21:57:21.194Z,5.25
2023-04-12T21:59:47.867Z,5.70
2023-04-12T22:02:15.454Z,5.00
2023-04-12T22:04:42.417Z,5.07
2023-04-12T22:07:12.520Z,5.07
2023-04-12T22:09:40.238Z,5.47
2023-04-12T22:12:07.503Z,5.70
2023-04-12T22:14:34.991Z,5.13
2023-04-12T22:17:02.234Z,4.80
2023-04-12T22:19:28.875Z,4.68
2023-04-12T22:21:55.501Z,4.32
2023-04-12T22:24:23.334Z,3.20
2023-04-12T22:26:49.944Z,3.08
2023-04-12T22:29:17.571Z,2.70
2023-04-12T22:31:47.195Z,2.80
2023-04-12T22:34:14.077Z,2.70
2023-04-12T22:36:42.103Z,3.70
2023-04-12T22:39:15.359Z,2.33
2023-04-12T22:41:42.057Z,2.75
2023-04-12T22:44:09.160Z,1.90
2023-04-12T22:46:39.219Z,2.50
2023-04-12T22:49:05.951Z,2.35
2023-04-12T22:51:33.368Z,2.83
2023-04-12T22:54:02.580Z,2.30
2023-04-12T22:56:30.252Z,2.40
2023-04-12T22:58:56.902Z,2.25
2023-04-12T23:01:23.604Z,1.85
2023-04-12T23:03:50.604Z,2.00
2023-04-12T23:06:19.573Z,2.28
2023-04-12T23:08:46.508Z,1.67
2023-04-12T23:11:13.971Z,1.85
2023-04-12T23:13:40.659Z,1.63
2023-04-12T23:16:07.811Z,1.80
2023-04-12T23:18:34.436Z,1.80
2023-04-12T23:21:01.648Z,1.77
2023-04-12T23:23:28.395Z,1.80
2023-04-12T23:25:55.382Z,1.50
2023-04-12T23:28:22.403Z,1.60
2023-04-12T23:30:50.023Z,1.73
2023-04-12T23:33:18.920Z,1.60
2023-04-12T23:35:52.282Z,1.83
2023-04-12T23:38:32.016Z,1.40
2023-04-12T23:41:00.370Z,1.40
2023-04-12T23:43:26.894Z,1.55
2023-04-12T23:45:53.591Z,1.40
2023-04-12T23:48:20.658Z,1.45
2023-04-12T23:50:48.244Z,1.33
2023-04-12T23:53:16.102Z,1.45
2023-04-12T23:55:43.770Z,1.20
2023-04-12T23:58:10.496Z,1.58
